Terminal Aerodrome Forecast
Issued by NWS

Home | Current Version | Previous Version | Text Only | Print | Product List | Glossary On
Versions: 1 2 3 4 5 6 7 8 9 10 11 12 13 14 15 16
000
FTUS43 KGRR 251100
TAFMKG
TAF
KMKG 251133Z 2512/2612 16003KT P6SM BKN160
     FM251500 21011KT P6SM BKN150
     FM260200 22008KT P6SM VCTS BKN070CB OVC150
     FM260600 19012KT 5SM -SHRA BR VCTS BKN035CB OVC070
     FM261000 20009KT P6SM OVC035=

USA.gov is the U.S. government's official web portal to all federal, state and local government web resources and services.